Detroit, Michigan
Current Conditions -  °F | °C
As of 9:00 PM on Wednesday 22 Oct 2014 (Local Time) from CYQG Reporting Station
Clear Clear  
Wind Chill: 41°   Ceiling: Unl
Heat Index: 46°   Visibility: 15mi
Dew Point: 41°   Wind: 10mph
Humidity: 81%   Direction: 30°NNE
Pressure: 30.28"   Gusts: NA
Location:  42.33°N, 83.05°W
Report Text: CYQG 230100Z 03009KT 15SM SKC 08/05 A3028 RMK SLP259
Loading
Personal Weather Stations






























Interactive Weather Map
Tropical Storm Tracking
New forecast layout! Learn more

10-Day Weather Forecast

Advertisements
Track Severe Weather on mobile